Time;durP1;ratioP1;P1;durP2;ratioP2;P2;SDS_P1;SDS_P2;PMS_P1;PMS_P2;Temp;Humidity;BMP_temperature;BMP_pressure;BME280_temperature;BME280_humidity;BME280_pressure;Samples;Min_cycle;Max_cycle;Signal;HPM_P1;HPM_P2
2023/12/04 00:01:59;;;;;;;19.10;7.22;;;-3.90;98.00;;;;;;4977149;28;20201;-67
2023/12/04 00:04:26;;;;;;;14.43;6.03;;;-3.70;98.00;;;;;;4973206;28;20600;-67
2023/12/04 00:06:53;;;;;;;17.27;6.32;;;-3.60;98.00;;;;;;4971958;28;20210;-67
2023/12/04 00:09:20;;;;;;;13.73;5.53;;;-3.60;98.00;;;;;;4978645;28;20577;-67
2023/12/04 00:11:48;;;;;;;17.17;6.47;;;-3.60;98.00;;;;;;4977851;28;20236;-67
2023/12/04 00:14:19;;;;;;;14.80;6.25;;;-3.70;98.00;;;;;;4971540;28;20202;-66
2023/12/04 00:16:46;;;;;;;11.80;5.30;;;-3.70;98.00;;;;;;4974408;28;20672;-67
2023/12/04 00:19:17;;;;;;;12.68;5.47;;;-3.70;98.00;;;;;;4973049;28;20571;-67
2023/12/04 00:21:45;;;;;;;16.40;5.47;;;-3.70;98.00;;;;;;4976587;28;20658;-68
2023/12/04 00:24:12;;;;;;;13.45;5.03;;;-3.70;98.00;;;;;;4971806;28;20230;-67
2023/12/04 00:26:39;;;;;;;9.25;4.90;;;-3.60;98.00;;;;;;4974296;28;20560;-67
2023/12/04 00:29:06;;;;;;;15.52;6.10;;;-3.60;98.00;;;;;;4972067;28;20213;-68
2023/12/04 00:31:35;;;;;;;13.98;5.72;;;-3.60;98.00;;;;;;4973937;28;20211;-67
2023/12/04 00:34:02;;;;;;;12.32;5.60;;;-3.60;98.00;;;;;;4971771;28;20199;-67
2023/12/04 00:36:29;;;;;;;14.27;5.75;;;-3.60;98.00;;;;;;4972356;28;20216;-67
2023/12/04 00:38:56;;;;;;;13.18;5.65;;;-3.60;98.00;;;;;;4973047;28;20206;-67
2023/12/04 00:41:23;;;;;;;14.98;5.13;;;-3.50;98.00;;;;;;4978353;28;20584;-66
2023/12/04 00:43:50;;;;;;;12.23;4.65;;;-3.70;98.00;;;;;;4971959;28;20237;-67
2023/12/04 00:46:17;;;;;;;14.45;5.55;;;-3.90;98.00;;;;;;4972409;28;20699;-68
2023/12/04 00:48:46;;;;;;;13.70;4.97;;;-4.00;98.00;;;;;;4972742;28;20208;-67
2023/12/04 00:51:13;;;;;;;11.15;4.63;;;-4.10;98.00;;;;;;4973278;28;20198;-68
2023/12/04 00:53:40;;;;;;;13.95;5.18;;;-4.00;98.00;;;;;;4976937;28;20211;-67
2023/12/04 00:56:08;;;;;;;12.15;5.80;;;-3.90;98.00;;;;;;4975842;28;20206;-67
2023/12/04 00:58:41;;;;;;;11.10;5.38;;;-4.00;98.00;;;;;;4972202;28;20226;-68
2023/12/04 01:01:09;;;;;;;9.63;4.85;;;-4.10;98.00;;;;;;4973120;28;20198;-67
2023/12/04 01:03:36;;;;;;;15.40;6.00;;;-4.10;98.00;;;;;;4973437;28;20752;-67
2023/12/04 01:06:04;;;;;;;14.85;4.95;;;-4.20;98.00;;;;;;4971890;28;20319;-68
2023/12/04 01:08:31;;;;;;;12.77;5.13;;;-4.10;98.00;;;;;;4974497;28;20213;-67
2023/12/04 01:10:58;;;;;;;10.05;5.00;;;-4.00;98.00;;;;;;4974164;28;20198;-67
2023/12/04 01:13:26;;;;;;;14.48;5.20;;;-4.10;98.00;;;;;;4975124;28;20210;-67
2023/12/04 01:15:53;;;;;;;13.55;5.93;;;-4.10;98.00;;;;;;4970956;28;20784;-67
2023/12/04 01:18:20;;;;;;;11.68;5.22;;;-4.30;98.00;;;;;;4969768;28;20212;-67
2023/12/04 01:20:47;;;;;;;11.50;5.70;;;-4.20;98.00;;;;;;4967801;28;20217;-67
2023/12/04 01:23:18;;;;;;;16.55;6.07;;;-4.20;98.00;;;;;;4971899;28;20712;-68
2023/12/04 01:25:45;;;;;;;9.60;5.15;;;-4.30;98.00;;;;;;4973951;28;20548;-67
2023/12/04 01:28:15;;;;;;;15.23;5.10;;;-4.40;98.00;;;;;;4963425;28;20202;-67
2023/12/04 01:30:44;;;;;;;8.48;3.80;;;-4.50;98.00;;;;;;4974974;28;20285;-67
2023/12/04 01:33:11;;;;;;;12.82;5.43;;;-4.40;98.00;;;;;;4973102;28;20297;-67
2023/12/04 01:35:38;;;;;;;12.80;6.30;;;-4.30;98.00;;;;;;4978985;28;20209;-67
2023/12/04 01:38:05;;;;;;;9.18;5.15;;;-4.30;98.00;;;;;;4977343;28;20543;-67
2023/12/04 01:40:34;;;;;;;17.67;5.47;;;-4.10;98.00;;;;;;4974788;28;20205;-66
2023/12/04 01:43:01;;;;;;;13.70;5.57;;;-4.00;98.00;;;;;;4996195;28;20226;-67
2023/12/04 01:45:28;;;;;;;33.70;9.60;;;-3.90;98.00;;;;;;4977702;28;20206;-66
2023/12/04 01:47:56;;;;;;;28.42;8.00;;;-3.80;98.00;;;;;;4969489;28;20195;-67
2023/12/04 01:50:24;;;;;;;17.70;6.65;;;-4.10;98.00;;;;;;4978329;28;20207;-67
2023/12/04 01:52:52;;;;;;;15.57;5.57;;;-4.10;98.00;;;;;;4972512;28;20214;-68
2023/12/04 01:55:21;;;;;;;10.75;4.82;;;-4.10;98.00;;;;;;4977747;28;20209;-68
2023/12/04 01:57:51;;;;;;;11.50;4.70;;;-4.00;98.00;;;;;;4975411;28;20238;-66
2023/12/04 02:00:20;;;;;;;8.88;4.15;;;-4.00;98.00;;;;;;4972225;28;20207;-67
2023/12/04 02:02:48;;;;;;;10.80;4.80;;;-4.00;98.00;;;;;;4971570;28;20218;-68
2023/12/04 02:05:37;;;;;;;16.50;5.85;;;-3.90;98.00;;;;;;4974300;28;20209;-67
2023/12/04 02:08:05;;;;;;;18.65;7.20;;;-4.00;98.00;;;;;;5172311;23;21182;-69
2023/12/04 02:10:32;;;;;;;20.52;7.05;;;-4.00;98.00;;;;;;4946661;29;20565;-69
2023/12/04 02:13:01;;;;;;;7.40;4.30;;;-4.00;98.00;;;;;;4955628;29;20209;-69
2023/12/04 02:15:28;;;;;;;8.77;4.00;;;-4.00;98.00;;;;;;4951814;29;20819;-69
2023/12/04 02:17:56;;;;;;;10.32;4.60;;;-4.10;98.00;;;;;;4954722;29;20290;-70
2023/12/04 02:20:33;;;;;;;14.30;5.68;;;-4.10;98.00;;;;;;4955666;28;20203;-69
2023/12/04 02:23:00;;;;;;;17.70;5.38;;;-4.00;98.00;;;;;;4938679;28;20290;-69
2023/12/04 02:25:29;;;;;;;15.73;5.97;;;-4.00;98.00;;;;;;4955678;29;20245;-69
2023/12/04 02:28:00;;;;;;;17.25;6.25;;;-3.80;98.00;;;;;;4948996;29;20940;-69
2023/12/04 02:30:29;;;;;;;13.52;5.70;;;-3.70;98.00;;;;;;4954552;29;20207;-68
2023/12/04 02:32:58;;;;;;;14.85;5.80;;;-3.80;98.00;;;;;;4955575;29;20274;-68
2023/12/04 02:35:29;;;;;;;9.77;5.03;;;-3.90;98.00;;;;;;4945029;29;20210;-69
2023/12/04 02:37:58;;;;;;;19.70;5.60;;;-4.00;98.00;;;;;;4955267;29;20226;-69
2023/12/04 02:40:26;;;;;;;10.55;5.43;;;-3.90;98.00;;;;;;4955134;29;20577;-69
2023/12/04 02:42:55;;;;;;;15.02;5.47;;;-4.00;98.00;;;;;;4954719;28;20293;-69
2023/12/04 02:45:23;;;;;;;26.75;7.60;;;-4.00;98.00;;;;;;4955047;29;20282;-69
2023/12/04 02:47:50;;;;;;;23.20;7.53;;;-4.00;98.00;;;;;;4955021;29;20207;-69
2023/12/04 02:50:17;;;;;;;20.15;7.30;;;-3.90;98.00;;;;;;4954214;29;20211;-69
2023/12/04 02:52:44;;;;;;;23.45;6.63;;;-3.90;98.00;;;;;;4955018;29;20214;-69
2023/12/04 02:55:11;;;;;;;22.65;7.38;;;-3.90;98.00;;;;;;4954461;29;20255;-69
2023/12/04 02:57:39;;;;;;;22.83;6.90;;;-3.90;98.00;;;;;;4954985;29;20207;-69
2023/12/04 03:00:10;;;;;;;23.60;7.65;;;-4.00;98.00;;;;;;4953820;29;20203;-69
2023/12/04 03:02:37;;;;;;;24.75;7.07;;;-4.00;98.00;;;;;;4954844;29;20199;-69
2023/12/04 03:05:05;;;;;;;13.77;6.65;;;-4.10;98.00;;;;;;4930380;29;20326;-69
2023/12/04 03:07:32;;;;;;;23.88;7.88;;;-4.00;98.00;;;;;;4954847;29;20203;-69
2023/12/04 03:09:59;;;;;;;19.47;6.43;;;-3.90;98.00;;;;;;4937449;29;20210;-69
2023/12/04 03:12:26;;;;;;;32.75;9.57;;;-4.00;98.00;;;;;;4954743;29;20465;-69
2023/12/04 03:14:53;;;;;;;39.55;10.50;;;-4.00;98.00;;;;;;4953678;29;20266;-69
2023/12/04 03:17:22;;;;;;;32.30;10.57;;;-4.10;98.00;;;;;;4953741;29;20222;-69
2023/12/04 03:19:49;;;;;;;38.20;10.98;;;-4.10;98.00;;;;;;4954434;29;20210;-69
2023/12/04 03:22:18;;;;;;;29.88;8.48;;;-4.10;98.00;;;;;;4954392;29;20274;-69
2023/12/04 03:24:45;;;;;;;39.65;8.80;;;-3.90;98.00;;;;;;4954367;29;20453;-69
2023/12/04 03:27:12;;;;;;;23.90;7.70;;;-3.90;98.00;;;;;;4954432;29;20202;-69
2023/12/04 03:29:40;;;;;;;27.58;6.95;;;-4.00;98.00;;;;;;4954433;29;20281;-69
2023/12/04 03:32:07;;;;;;;15.93;6.35;;;-4.00;98.00;;;;;;4936220;29;20239;-69
2023/12/04 03:34:36;;;;;;;24.48;8.02;;;-4.00;98.00;;;;;;4954114;29;20214;-68
2023/12/04 03:37:03;;;;;;;13.35;5.75;;;-4.00;98.00;;;;;;4953843;29;20203;-69
2023/12/04 03:39:30;;;;;;;13.63;4.88;;;-4.10;98.00;;;;;;4937811;29;20207;-69
2023/12/04 03:41:58;;;;;;;9.23;4.40;;;-4.10;98.00;;;;;;4935823;29;20203;-69
2023/12/04 03:44:29;;;;;;;7.20;3.33;;;-4.10;98.00;;;;;;4954040;29;20658;-69
2023/12/04 03:46:56;;;;;;;7.72;3.58;;;-4.10;98.00;;;;;;4953916;29;20207;-69
2023/12/04 03:49:23;;;;;;;7.55;3.40;;;-4.10;98.00;;;;;;4953377;29;20199;-69
2023/12/04 03:51:51;;;;;;;8.45;3.63;;;-3.90;98.00;;;;;;4953544;29;20203;-69
2023/12/04 03:54:18;;;;;;;11.15;5.07;;;-3.60;98.00;;;;;;4953580;28;20222;-69
2023/12/04 03:56:46;;;;;;;15.02;5.30;;;-3.40;98.00;;;;;;4940513;29;20203;-69
2023/12/04 03:59:13;;;;;;;14.05;5.68;;;-3.50;98.00;;;;;;4938677;29;20681;-69
2023/12/04 04:01:40;;;;;;;13.70;5.53;;;-3.50;98.00;;;;;;4953880;29;20217;-69
2023/12/04 04:04:07;;;;;;;10.40;5.07;;;-3.50;98.00;;;;;;4953582;29;20226;-69
2023/12/04 04:06:34;;;;;;;8.90;4.75;;;-3.50;98.00;;;;;;4953951;29;20562;-68
2023/12/04 04:09:02;;;;;;;12.10;5.53;;;-3.60;98.00;;;;;;4934982;29;20202;-69
2023/12/04 04:11:29;;;;;;;11.65;4.70;;;-3.70;98.00;;;;;;4953631;29;20203;-69
2023/12/04 04:13:57;;;;;;;7.97;4.95;;;-3.70;98.00;;;;;;4953432;29;20250;-69
2023/12/04 04:16:24;;;;;;;16.85;5.35;;;-3.70;98.00;;;;;;4953474;29;20198;-69
2023/12/04 04:18:51;;;;;;;7.78;4.63;;;-3.60;98.00;;;;;;4952632;29;20230;-69
2023/12/04 04:21:18;;;;;;;14.30;5.68;;;-3.50;98.00;;;;;;4953722;29;20602;-69
2023/12/04 04:23:45;;;;;;;9.68;4.45;;;-3.50;98.00;;;;;;4952720;29;20198;-69
2023/12/04 04:26:20;;;;;;;10.85;4.43;;;-3.50;98.00;;;;;;4953249;29;20677;-69
2023/12/04 04:28:47;;;;;;;13.18;4.55;;;-3.50;98.00;;;;;;4952407;29;20206;-69
2023/12/04 04:31:14;;;;;;;9.77;4.35;;;-3.40;98.00;;;;;;4953012;29;20253;-69
2023/12/04 04:33:41;;;;;;;13.23;5.07;;;-3.30;98.00;;;;;;4952272;29;20195;-69
2023/12/04 04:36:11;;;;;;;8.80;3.75;;;-3.50;98.00;;;;;;4953097;29;20668;-69
2023/12/04 04:38:38;;;;;;;12.18;4.38;;;-3.50;98.00;;;;;;4953256;29;20768;-68
2023/12/04 04:41:05;;;;;;;10.50;4.60;;;-3.60;98.00;;;;;;4952025;28;20202;-69
2023/12/04 04:43:34;;;;;;;9.40;4.03;;;-3.50;98.00;;;;;;4952884;28;20198;-69
2023/12/04 04:46:01;;;;;;;12.05;4.40;;;-3.50;98.00;;;;;;4953095;28;20732;-69
2023/12/04 04:48:28;;;;;;;6.80;4.05;;;-3.40;98.00;;;;;;4952775;29;20724;-69
2023/12/04 04:50:55;;;;;;;8.00;3.85;;;-3.60;98.00;;;;;;4937021;29;20627;-69
2023/12/04 04:53:22;;;;;;;8.93;4.05;;;-3.50;98.00;;;;;;4935993;29;20207;-68
2023/12/04 04:55:49;;;;;;;5.00;3.10;;;-3.60;98.00;;;;;;4941047;29;20257;-69
2023/12/04 04:58:16;;;;;;;12.50;4.45;;;-3.70;98.00;;;;;;4952055;29;20207;-69
2023/12/04 05:00:45;;;;;;;9.82;3.90;;;-3.70;98.00;;;;;;4952761;29;20202;-69
2023/12/04 05:03:12;;;;;;;13.27;3.65;;;-3.60;98.00;;;;;;4952694;29;20203;-69
2023/12/04 05:05:39;;;;;;;9.60;3.45;;;-3.50;98.00;;;;;;4951699;29;20222;-69
2023/12/04 05:08:06;;;;;;;6.50;3.55;;;-3.40;98.00;;;;;;4945172;28;20218;-69
2023/12/04 05:10:33;;;;;;;12.35;4.40;;;-3.40;98.00;;;;;;4952717;29;20199;-69
2023/12/04 05:13:00;;;;;;;7.82;3.70;;;-3.40;98.00;;;;;;4952835;29;20649;-69
2023/12/04 05:15:27;;;;;;;11.45;4.20;;;-3.40;98.00;;;;;;4932667;29;20218;-69
2023/12/04 05:17:56;;;;;;;10.63;4.10;;;-3.30;98.00;;;;;;4952255;28;20262;-69
2023/12/04 05:20:23;;;;;;;9.10;3.70;;;-3.20;98.00;;;;;;4939779;29;20209;-69
2023/12/04 05:22:52;;;;;;;10.68;3.75;;;-3.20;98.00;;;;;;4951950;29;20257;-69
2023/12/04 05:25:19;;;;;;;10.23;3.60;;;-3.20;98.00;;;;;;4952249;28;20282;-69
2023/12/04 05:27:46;;;;;;;10.50;3.40;;;-3.10;98.00;;;;;;4948293;29;20540;-69
2023/12/04 05:30:13;;;;;;;4.70;3.08;;;-3.20;98.00;;;;;;4944473;29;20249;-69
2023/12/04 05:32:40;;;;;;;7.15;3.58;;;-3.10;98.00;;;;;;4952615;29;20676;-69
2023/12/04 05:35:09;;;;;;;7.85;3.55;;;-3.10;98.00;;;;;;5145980;23;20287;-69
2023/12/04 05:37:37;;;;;;;9.90;4.45;;;-3.10;98.00;;;;;;4984252;28;20209;-68
2023/12/04 05:40:05;;;;;;;8.15;3.58;;;-3.00;98.00;;;;;;4991203;28;20267;-69
2023/12/04 05:42:32;;;;;;;9.63;4.15;;;-3.00;98.00;;;;;;4990484;28;20285;-69
2023/12/04 05:45:00;;;;;;;12.52;4.20;;;-2.90;98.00;;;;;;4988199;28;20224;-69
2023/12/04 05:47:27;;;;;;;8.90;3.70;;;-2.80;98.00;;;;;;4977388;28;20240;-69
2023/12/04 05:49:54;;;;;;;9.82;4.00;;;-2.80;98.00;;;;;;4986164;28;20202;-69
2023/12/04 05:52:23;;;;;;;12.35;4.10;;;-2.90;98.00;;;;;;4998301;28;20243;-69
2023/12/04 05:54:50;;;;;;;6.65;3.03;;;-2.80;98.00;;;;;;4986038;28;20294;-68
2023/12/04 05:57:17;;;;;;;12.68;3.72;;;-2.90;98.00;;;;;;4991693;28;20209;-69
2023/12/04 05:59:44;;;;;;;11.52;4.00;;;-2.80;98.00;;;;;;4991381;28;20200;-68
2023/12/04 06:02:12;;;;;;;11.68;3.95;;;-2.80;98.00;;;;;;4985907;28;20326;-69
2023/12/04 06:04:39;;;;;;;8.32;3.35;;;-2.70;98.00;;;;;;4991178;28;20266;-69
2023/12/04 06:07:07;;;;;;;12.80;3.97;;;-2.70;98.00;;;;;;4988403;28;20199;-69
2023/12/04 06:09:36;;;;;;;11.80;4.55;;;-2.70;98.00;;;;;;4990421;28;20593;-69
2023/12/04 06:12:08;;;;;;;7.35;3.65;;;-2.60;98.00;;;;;;4984117;28;20203;-69
2023/12/04 06:14:35;;;;;;;8.18;3.60;;;-2.60;98.00;;;;;;4983860;28;20233;-69
2023/12/04 06:17:03;;;;;;;9.43;4.55;;;-2.70;98.00;;;;;;4975932;28;20668;-69
2023/12/04 06:19:30;;;;;;;10.55;4.55;;;-2.70;98.00;;;;;;4988703;28;20252;-69
2023/12/04 06:21:57;;;;;;;14.13;4.95;;;-2.80;98.00;;;;;;4991815;28;20193;-69
2023/12/04 06:24:25;;;;;;;10.23;4.68;;;-2.70;98.00;;;;;;4992731;28;20297;-69
2023/12/04 06:26:54;;;;;;;12.15;4.63;;;-2.70;98.00;;;;;;4994007;28;20198;-69
2023/12/04 06:29:22;;;;;;;31.95;11.38;;;-2.70;98.00;;;;;;4993922;28;20209;-69
2023/12/04 06:31:50;;;;;;;16.08;6.10;;;-2.60;98.00;;;;;;4993824;28;20202;-69
2023/12/04 06:34:17;;;;;;;13.90;4.82;;;-2.70;98.00;;;;;;4991502;28;20307;-69
2023/12/04 06:36:45;;;;;;;8.90;4.90;;;-2.70;98.00;;;;;;4974871;28;20202;-69
2023/12/04 06:39:14;;;;;;;9.83;4.87;;;-2.80;98.00;;;;;;4988262;28;20200;-69
2023/12/04 06:41:46;;;;;;;42.87;12.90;;;-2.80;98.00;;;;;;4985867;28;20509;-69
2023/12/04 06:44:14;;;;;;;64.63;19.90;;;-2.80;98.00;;;;;;4982053;28;20494;-69
2023/12/04 06:46:45;;;;;;;48.15;13.48;;;-2.80;98.00;;;;;;4993902;28;20288;-69
2023/12/04 06:49:14;;;;;;;28.27;9.40;;;-2.80;98.00;;;;;;4983509;28;20198;-69
2023/12/04 06:51:41;;;;;;;40.90;13.47;;;-2.80;98.00;;;;;;4987023;28;20268;-69
2023/12/04 06:54:08;;;;;;;20.00;7.07;;;-2.80;98.00;;;;;;4978704;28;20465;-69
2023/12/04 06:56:35;;;;;;;19.88;5.18;;;-2.80;98.00;;;;;;4989119;28;20454;-69
2023/12/04 06:59:02;;;;;;;15.23;5.83;;;-2.80;98.00;;;;;;4990516;28;20208;-69
2023/12/04 07:01:30;;;;;;;9.38;4.03;;;-2.80;98.00;;;;;;4984411;28;20477;-69
2023/12/04 07:03:57;;;;;;;19.70;5.60;;;-2.80;98.00;;;;;;4988663;28;20206;-69
2023/12/04 07:06:25;;;;;;;17.42;6.03;;;-2.70;98.00;;;;;;5011287;28;20567;-69
2023/12/04 07:08:52;;;;;;;18.33;5.03;;;-2.70;98.00;;;;;;4984925;28;20537;-71
2023/12/04 07:11:19;;;;;;;9.67;4.27;;;-2.60;98.00;;;;;;4987352;28;20481;-71
2023/12/04 07:13:46;;;;;;;8.93;3.92;;;-2.50;98.00;;;;;;4990931;28;20458;-70
2023/12/04 07:16:13;;;;;;;10.45;4.30;;;-2.40;98.00;;;;;;4985009;28;20670;-71
2023/12/04 07:18:42;;;;;;;15.60;5.33;;;-2.50;98.00;;;;;;4990409;28;20199;-71
2023/12/04 07:21:09;;;;;;;19.38;5.88;;;-2.50;98.00;;;;;;4982022;28;20467;-71
2023/12/04 07:23:36;;;;;;;10.90;4.50;;;-2.60;98.00;;;;;;4982863;28;20204;-70
2023/12/04 07:26:06;;;;;;;10.43;4.10;;;-2.80;98.00;;;;;;4984819;28;20229;-70
2023/12/04 07:28:33;;;;;;;13.02;5.40;;;-2.80;98.00;;;;;;4985150;28;20715;-70
2023/12/04 07:31:01;;;;;;;12.20;4.90;;;-2.90;98.00;;;;;;4983100;28;20256;-71
2023/12/04 07:33:29;;;;;;;11.98;5.03;;;-2.90;98.00;;;;;;4992639;28;20209;-70
2023/12/04 07:35:57;;;;;;;14.32;5.38;;;-2.80;98.00;;;;;;4993044;28;20626;-71
2023/12/04 07:38:27;;;;;;;12.35;5.15;;;-2.80;98.00;;;;;;4993177;28;20688;-71
2023/12/04 07:40:54;;;;;;;9.35;4.80;;;-2.90;98.00;;;;;;4992728;28;20549;-71
2023/12/04 07:43:21;;;;;;;9.85;4.55;;;-2.90;98.00;;;;;;4992984;28;20212;-71
2023/12/04 07:45:48;;;;;;;11.52;4.20;;;-2.80;98.00;;;;;;4989504;28;20238;-70
2023/12/04 07:48:16;;;;;;;7.57;4.03;;;-2.70;98.00;;;;;;4989594;28;20200;-71
2023/12/04 07:50:43;;;;;;;9.48;3.58;;;-2.60;98.00;;;;;;4992838;28;20232;-71
2023/12/04 07:53:13;;;;;;;12.10;4.40;;;-2.50;98.00;;;;;;4979321;28;20210;-71
2023/12/04 07:55:40;;;;;;;15.27;4.97;;;-2.30;98.00;;;;;;5004283;28;20228;-71
2023/12/04 07:58:07;;;;;;;9.50;4.90;;;-2.30;98.00;;;;;;4993299;28;20195;-71
2023/12/04 08:00:34;;;;;;;12.50;4.07;;;-2.20;98.00;;;;;;4980753;28;20465;-70
2023/12/04 08:03:01;;;;;;;10.02;4.95;;;-2.00;98.00;;;;;;4981964;28;20326;-71
2023/12/04 08:05:29;;;;;;;8.23;4.35;;;-2.00;98.00;;;;;;4982494;28;20228;-69
2023/12/04 10:08:28;;;;;;;23.00;7.50;;;-0.50;98.00;;;;;;5095790;27;20939;-68
2023/12/04 10:10:55;;;;;;;15.00;6.50;;;-0.40;98.00;;;;;;5068467;28;20455;-67
2023/12/04 10:13:23;;;;;;;16.57;6.40;;;-0.30;98.00;;;;;;5066703;28;20459;-67
2023/12/04 10:15:51;;;;;;;19.73;6.30;;;-0.10;98.00;;;;;;5068411;28;20538;-67
2023/12/04 10:18:34;;;;;;;16.80;6.10;;;0.00;98.00;;;;;;5067440;28;20477;-65
2023/12/04 10:21:02;;;;;;;13.90;5.67;;;0.00;98.00;;;;;;5068331;28;20455;-65
2023/12/04 10:23:40;;;;;;;15.57;5.80;;;0.00;98.00;;;;;;5068157;28;20454;-65
2023/12/04 10:26:07;;;;;;;13.17;5.30;;;0.20;98.00;;;;;;5067990;28;20487;-65
2023/12/04 10:28:35;;;;;;;13.03;5.20;;;0.40;98.00;;;;;;5067963;28;20874;-65
2023/12/04 10:31:02;;;;;;;13.63;6.27;;;0.50;98.00;;;;;;5067919;28;20858;-65
2023/12/04 10:33:31;;;;;;;14.63;5.93;;;0.50;98.00;;;;;;5067966;28;20457;-65
2023/12/04 10:35:59;;;;;;;14.13;5.33;;;0.70;98.00;;;;;;5067917;28;20884;-65
2023/12/04 10:38:26;;;;;;;14.77;6.37;;;0.90;98.00;;;;;;5067723;28;21000;-65
2023/12/04 10:41:14;;;;;;;14.37;6.40;;;0.90;98.00;;;;;;5066516;28;20547;-65
2023/12/04 10:43:48;;;;;;;12.90;5.50;;;1.00;98.00;;;;;;5067971;28;20551;-65
2023/12/04 10:46:17;;;;;;;16.33;6.33;;;1.00;98.00;;;;;;5066313;28;21044;-65
2023/12/04 10:48:46;;;;;;;17.27;6.80;;;0.80;98.00;;;;;;5067581;28;20496;-65
2023/12/04 10:51:13;;;;;;;11.17;5.17;;;0.70;98.00;;;;;;5067439;28;20456;-65
2023/12/04 10:53:42;;;;;;;16.77;7.23;;;0.80;98.00;;;;;;5067467;28;20871;-65
2023/12/04 10:56:13;;;;;;;16.10;5.73;;;0.90;98.00;;;;;;5067348;28;20453;-65
2023/12/04 10:58:42;;;;;;;14.50;6.20;;;0.80;98.00;;;;;;5067314;28;20462;-65
2023/12/04 11:01:12;;;;;;;13.10;5.83;;;0.90;98.00;;;;;;5067213;28;20953;-65
2023/12/04 11:03:45;;;;;;;16.00;5.93;;;1.00;98.00;;;;;;5067274;28;20455;-65
2023/12/04 11:06:16;;;;;;;13.83;6.40;;;1.00;98.00;;;;;;5065793;28;20859;-65
2023/12/04 11:08:43;;;;;;;15.53;6.30;;;0.90;98.00;;;;;;5057938;28;20510;-66
2023/12/04 11:11:16;;;;;;;13.17;6.20;;;1.00;98.00;;;;;;5053786;28;20480;-66
2023/12/04 11:13:46;;;;;;;17.87;7.30;;;1.10;98.00;;;;;;5053627;28;20453;-65
2023/12/04 11:16:19;;;;;;;15.90;6.50;;;1.10;98.00;;;;;;5053764;28;20874;-66
2023/12/04 11:19:00;;;;;;;17.10;7.47;;;1.10;98.00;;;;;;5052438;28;20522;-65
2023/12/04 11:21:30;;;;;;;17.73;7.30;;;1.20;98.00;;;;;;5053497;28;20999;-65
2023/12/04 11:23:59;;;;;;;20.10;7.20;;;1.20;98.00;;;;;;5053533;28;20461;-66
2023/12/04 11:26:28;;;;;;;15.30;6.40;;;1.10;98.00;;;;;;5053165;28;20576;-65
2023/12/04 11:28:56;;;;;;;17.70;7.07;;;1.00;98.00;;;;;;5053556;28;20461;-65
2023/12/04 11:31:23;;;;;;;16.07;6.90;;;1.10;98.00;;;;;;5053340;28;20453;-65
2023/12/04 11:33:50;;;;;;;19.40;6.60;;;1.10;98.00;;;;;;5053322;28;20515;-65
2023/12/04 11:36:18;;;;;;;16.70;6.77;;;1.10;98.00;;;;;;5053256;28;20464;-65
2023/12/04 11:38:47;;;;;;;20.53;7.07;;;1.00;98.00;;;;;;5053589;28;20511;-65
2023/12/04 11:41:18;;;;;;;15.33;7.30;;;1.20;98.00;;;;;;5052195;28;20552;-65
2023/12/04 11:43:47;;;;;;;16.60;6.50;;;1.30;98.00;;;;;;5054007;28;20464;-65
2023/12/04 11:46:20;;;;;;;19.97;7.80;;;1.10;98.00;;;;;;5053068;28;20551;-65
2023/12/04 11:48:49;;;;;;;17.43;7.30;;;1.20;98.00;;;;;;5053332;28;20460;-65
2023/12/04 11:51:36;;;;;;;19.40;8.20;;;1.20;98.00;;;;;;5053230;28;20456;-65
2023/12/04 11:54:04;;;;;;;16.43;7.03;;;1.20;98.00;;;;;;5053194;28;20448;-65
2023/12/04 11:56:32;;;;;;;26.20;8.07;;;1.20;98.00;;;;;;5051966;28;20631;-65
2023/12/04 11:59:06;;;;;;;20.90;7.33;;;1.20;98.00;;;;;;5053284;28;20525;-65
2023/12/04 12:01:34;;;;;;;21.17;7.23;;;1.30;98.00;;;;;;5052914;28;20510;-65
2023/12/04 12:04:02;;;;;;;22.43;8.23;;;1.30;98.00;;;;;;5056244;28;20536;-65
2023/12/04 12:06:29;;;;;;;25.93;8.53;;;1.30;98.00;;;;;;5055941;28;20461;-65
2023/12/04 12:08:57;;;;;;;23.97;8.20;;;1.10;98.00;;;;;;5052806;28;20456;-65
2023/12/04 12:11:24;;;;;;;23.90;8.60;;;1.00;98.00;;;;;;5052564;28;20449;-66
2023/12/04 12:13:52;;;;;;;26.13;9.10;;;0.80;98.00;;;;;;5052623;28;20470;-65
2023/12/04 12:16:20;;;;;;;17.97;8.23;;;0.70;98.00;;;;;;5052546;28;20859;-65
2023/12/04 12:18:48;;;;;;;13.60;7.30;;;0.60;98.00;;;;;;5052350;28;20875;-66
2023/12/04 12:21:15;;;;;;;23.80;8.60;;;0.60;98.00;;;;;;5051641;28;20455;-65
2023/12/04 12:23:43;;;;;;;27.57;8.97;;;0.50;98.00;;;;;;5052742;28;20518;-65
2023/12/04 12:26:11;;;;;;;21.73;7.97;;;0.40;98.00;;;;;;5052311;28;20449;-66
2023/12/04 12:28:38;;;;;;;14.70;6.97;;;0.40;98.00;;;;;;5050899;28;20852;-65
2023/12/04 12:31:06;;;;;;;19.77;7.87;;;0.40;98.00;;;;;;5052277;28;21000;-65
2023/12/04 12:33:34;;;;;;;18.83;7.10;;;0.40;98.00;;;;;;5050916;28;20453;-65
2023/12/04 12:36:03;;;;;;;20.37;8.23;;;0.40;98.00;;;;;;5052534;28;21029;-65
2023/12/04 12:38:34;;;;;;;24.87;6.90;;;0.50;98.00;;;;;;5223949;23;20586;-62
2023/12/04 12:41:01;;;;;;;18.13;7.53;;;0.50;98.00;;;;;;5032838;28;20527;-62
2023/12/04 12:43:29;;;;;;;22.37;8.20;;;0.60;98.00;;;;;;5032813;28;20951;-62
2023/12/04 12:45:56;;;;;;;15.37;7.57;;;0.60;98.00;;;;;;5032713;28;20812;-62
2023/12/04 12:48:23;;;;;;;19.33;7.33;;;0.80;98.00;;;;;;5032706;28;20496;-62
2023/12/04 12:50:51;;;;;;;14.70;7.57;;;0.80;98.00;;;;;;5032663;28;20803;-62
2023/12/04 12:53:19;;;;;;;22.63;7.80;;;0.90;98.00;;;;;;5032778;28;20465;-62
2023/12/04 12:55:48;;;;;;;21.30;8.17;;;1.10;98.00;;;;;;5032244;28;20453;-62
2023/12/04 12:58:15;;;;;;;20.63;7.70;;;1.30;98.00;;;;;;5032683;28;20454;-62
2023/12/04 13:00:44;;;;;;;23.57;8.20;;;1.40;98.00;;;;;;5032418;28;20599;-62
2023/12/04 13:03:15;;;;;;;19.73;8.47;;;1.50;98.00;;;;;;5032548;28;21127;-62
2023/12/04 13:05:42;;;;;;;25.93;8.87;;;1.60;98.00;;;;;;5032351;28;21012;-62
2023/12/04 13:08:11;;;;;;;23.90;8.03;;;1.40;98.00;;;;;;5032384;28;20891;-62
2023/12/04 13:10:41;;;;;;;19.70;7.90;;;1.20;98.00;;;;;;5032386;28;20485;-62
2023/12/04 13:13:11;;;;;;;20.80;7.70;;;1.30;98.00;;;;;;5032669;28;20493;-62
2023/12/04 13:15:38;;;;;;;19.57;7.07;;;1.40;98.00;;;;;;5032494;28;20512;-62
2023/12/04 13:18:05;;;;;;;18.00;6.67;;;1.40;98.00;;;;;;5032599;28;20457;-62
2023/12/04 13:20:34;;;;;;;20.53;8.40;;;1.30;98.00;;;;;;5032394;28;20462;-62
2023/12/04 13:23:01;;;;;;;23.83;8.43;;;1.30;98.00;;;;;;5032471;28;20451;-62
2023/12/04 13:25:30;;;;;;;24.50;9.30;;;1.30;98.00;;;;;;5032297;28;20951;-62
2023/12/04 13:27:57;;;;;;;19.47;8.17;;;1.40;98.00;;;;;;5031947;28;20871;-62
2023/12/04 13:30:24;;;;;;;20.33;8.23;;;1.40;98.00;;;;;;5032229;28;20948;-62
2023/12/04 13:32:51;;;;;;;24.20;8.37;;;1.40;98.00;;;;;;5032076;28;20532;-62
2023/12/04 13:35:19;;;;;;;22.00;8.40;;;1.30;98.00;;;;;;5031618;28;20512;-62
2023/12/04 13:37:46;;;;;;;22.87;8.10;;;1.40;98.00;;;;;;5031554;28;20513;-62
2023/12/04 13:40:16;;;;;;;22.10;8.87;;;1.40;98.00;;;;;;5031654;28;20457;-62
2023/12/04 13:45:25;;;;;;;25.00;8.80;;;1.40;98.00;;;;;;4998283;28;20968;-62
2023/12/04 13:47:53;;;;;;;22.47;8.47;;;1.30;98.00;;;;;;5031270;28;20561;-62
2023/12/04 13:50:20;;;;;;;18.30;6.93;;;1.30;98.00;;;;;;5031680;28;20447;-62
2023/12/04 13:52:55;;;;;;;22.07;7.83;;;1.30;98.00;;;;;;5014098;28;20454;-62
2023/12/04 13:55:36;;;;;;;24.33;8.57;;;1.20;98.00;;;;;;5031513;28;20450;-62
2023/12/04 13:58:17;;;;;;;24.70;8.33;;;1.20;98.00;;;;;;5013228;28;20573;-62
2023/12/04 14:00:44;;;;;;;23.57;8.30;;;1.10;98.00;;;;;;5030878;28;20460;-62
2023/12/04 14:03:12;;;;;;;23.53;9.60;;;1.10;98.00;;;;;;5031618;28;20458;-62
2023/12/04 14:05:39;;;;;;;25.60;9.03;;;1.10;98.00;;;;;;5014297;28;20546;-62
2023/12/04 14:08:06;;;;;;;23.17;8.40;;;1.10;98.00;;;;;;5031731;28;20578;-62
2023/12/04 14:10:33;;;;;;;17.77;7.00;;;1.40;98.00;;;;;;5031361;28;20446;-62
2023/12/04 14:13:00;;;;;;;25.43;8.60;;;1.40;98.00;;;;;;5031489;28;20466;-62
2023/12/04 14:15:29;;;;;;;19.70;8.20;;;1.40;98.00;;;;;;5020477;28;21010;-62
2023/12/04 14:17:56;;;;;;;22.33;8.07;;;1.30;98.00;;;;;;5031664;28;20458;-62
2023/12/04 14:20:25;;;;;;;18.17;8.37;;;1.20;98.00;;;;;;5031560;28;20454;-62
2023/12/04 14:22:52;;;;;;;24.97;8.37;;;1.30;98.00;;;;;;5031123;28;20468;-62
2023/12/04 14:25:20;;;;;;;17.27;7.80;;;1.30;98.00;;;;;;5031563;28;20849;-62
2023/12/04 14:27:47;;;;;;;21.77;9.20;;;1.30;98.00;;;;;;5031310;28;20886;-62
2023/12/04 14:30:15;;;;;;;18.90;7.57;;;1.20;98.00;;;;;;5031497;28;20485;-62
2023/12/04 14:32:43;;;;;;;24.03;8.53;;;1.10;98.00;;;;;;5031352;28;20854;-62
2023/12/04 14:35:10;;;;;;;21.90;8.90;;;1.10;98.00;;;;;;5031373;28;20452;-62
2023/12/04 14:37:37;;;;;;;23.83;9.00;;;1.20;98.00;;;;;;5030997;28;20516;-62
2023/12/04 14:40:06;;;;;;;18.20;8.27;;;1.20;98.00;;;;;;5031403;28;20457;-62
2023/12/04 14:42:33;;;;;;;22.47;8.77;;;1.10;98.00;;;;;;5031289;28;20458;-62
2023/12/04 14:45:01;;;;;;;24.43;8.40;;;1.00;98.00;;;;;;5035089;28;20469;-62
2023/12/04 14:47:28;;;;;;;23.77;8.37;;;0.90;98.00;;;;;;5034256;28;20474;-62
2023/12/04 14:49:57;;;;;;;21.80;8.30;;;0.90;98.00;;;;;;5035082;28;20531;-62